Time;durP1;ratioP1;P1;durP2;ratioP2;P2;SDS_P1;SDS_P2;PMS_P1;PMS_P2;Temp;Humidity;BMP_temperature;BMP_pressure;BME280_temperature;BME280_humidity;BME280_pressure;Samples;Min_cycle;Max_cycle;Signal;HPM_P1;HPM_P2
2022/08/11 05:02:10;;;;;;;;;;;17.00;78.60;;;;;;5697977;23;19926;-75
2022/08/11 05:07:58;;;;;;;;;;;17.00;78.80;;;;;;4966552;29;19911;-75
2022/08/11 05:10:44;;;;;;;;;;;17.00;78.60;;;;;;4966082;29;19941;-75
2022/08/11 05:35:37;;;;;;;;;;;17.90;77.50;;;;;;4965137;29;20168;-76
2022/08/11 05:57:28;;;;;;;;;;;18.80;73.90;;;;;;4983146;28;20162;-76
2022/08/11 06:00:03;;;;;;;;;;;18.90;73.20;;;;;;4969077;28;19917;-75
2022/08/11 06:02:32;;;;;;;;;;;19.00;72.70;;;;;;4952606;29;20200;-75
2022/08/11 06:04:59;;;;;;;;;;;19.10;72.40;;;;;;4945268;29;19910;-75
2022/08/11 06:07:26;;;;;;;;;;;19.30;72.00;;;;;;4943455;29;19910;-76
2022/08/11 06:09:54;;;;;;;;;;;19.30;71.50;;;;;;4944850;29;19949;-75
2022/08/11 06:12:23;;;;;;;;;;;19.40;71.50;;;;;;4944859;29;20221;-75
2022/08/11 06:14:52;;;;;;;;;;;19.60;70.80;;;;;;4945069;29;20153;-75
2022/08/11 06:17:22;;;;;;;;;;;19.70;70.90;;;;;;4944739;29;20116;-75
2022/08/11 06:19:50;;;;;;;;;;;19.80;70.80;;;;;;4944865;29;19918;-75
2022/08/11 06:22:19;;;;;;;;;;;19.80;70.00;;;;;;4927368;29;19911;-75
2022/08/11 06:24:50;;;;;;;;;;;20.00;69.50;;;;;;4944948;29;19997;-75
2022/08/11 06:27:20;;;;;;;;;;;20.10;69.40;;;;;;4927263;29;19911;-75
2022/08/11 06:29:49;;;;;;;;;;;20.20;69.20;;;;;;4944541;29;20132;-75
2022/08/11 06:32:14;;;;;;;;;;;20.30;69.10;;;;;;4943849;29;19907;-75
2022/08/11 06:34:59;;;;;;;;;;;20.50;68.80;;;;;;4944451;29;19910;-75
2022/08/11 06:37:44;;;;;;;;;;;20.60;68.20;;;;;;4944107;29;20252;-74
2022/08/11 06:40:30;;;;;;;;;;;20.70;68.00;;;;;;4954038;29;19926;-75
2022/08/11 06:43:00;;;;;;;;;;;20.80;68.00;;;;;;4962037;28;19911;-75
2022/08/11 06:45:32;;;;;;;;;;;21.00;67.90;;;;;;4962648;29;19910;-75
2022/08/11 06:48:01;;;;;;;;;;;21.20;67.50;;;;;;4963273;29;19922;-75
2022/08/11 06:53:14;;;;;;;;;;;21.40;66.90;;;;;;4963252;29;19966;-75
2022/08/11 07:01:45;;;;;;;;;;;21.60;66.30;;;;;;4926443;29;19915;-75
2022/08/11 07:04:12;;;;;;;;;;;21.80;66.10;;;;;;4937010;29;20200;-75
2022/08/11 07:15:41;;;;;;;;;;;22.30;64.80;;;;;;4962655;29;20157;-75
2022/08/11 07:29:11;;;;;;;;;;;23.00;63.00;;;;;;4962871;29;19915;-74
2022/08/11 07:31:45;;;;;;;;;;;23.10;62.80;;;;;;4945039;29;19922;-74
2022/08/11 07:34:14;;;;;;;;;;;23.30;62.70;;;;;;4962288;29;19916;-75
2022/08/11 07:36:43;;;;;;;;;;;23.40;62.30;;;;;;4946889;29;19977;-75
2022/08/11 07:39:14;;;;;;;;;;;23.50;61.80;;;;;;4947075;29;19910;-75
2022/08/11 07:41:40;;;;;;;;;;;23.50;61.90;;;;;;4955151;29;19983;-74
2022/08/11 07:44:09;;;;;;;;;;;23.70;62.10;;;;;;4946191;29;19917;-76
2022/08/11 07:54:58;;;;;;;;;;;24.10;60.60;;;;;;4949111;29;20132;-75
2022/08/11 08:19:21;;;;;;;;;;;24.80;58.60;;;;;;4965497;29;19911;-75
2022/08/11 08:21:47;;;;;;;;;;;24.90;58.50;;;;;;4965875;29;20136;-74
2022/08/11 08:24:13;;;;;;;;;;;24.90;57.70;;;;;;4966037;29;19917;-75
2022/08/11 08:26:57;;;;;;;;;;;25.00;57.50;;;;;;4965732;29;19929;-75
2022/08/11 08:32:10;;;;;;;;;;;25.30;57.30;;;;;;4948714;29;19952;-75
2022/08/11 08:34:36;;;;;;;;;;;25.40;56.50;;;;;;4965467;29;20193;-76
2022/08/11 08:37:11;;;;;;;;;;;25.40;56.10;;;;;;4965950;29;19915;-75
2022/08/11 08:39:37;;;;;;;;;;;25.40;55.70;;;;;;4965170;29;20337;-76
2022/08/11 08:42:10;;;;;;;;;;;25.50;55.90;;;;;;4965603;29;19907;-75
2022/08/11 08:44:39;;;;;;;;;;;25.50;55.90;;;;;;4947893;29;19996;-76
2022/08/11 08:47:06;;;;;;;;;;;25.70;55.80;;;;;;4965709;29;19910;-76
2022/08/11 08:49:36;;;;;;;;;;;25.80;55.90;;;;;;4964847;29;19933;-76
2022/08/11 08:52:04;;;;;;;;;;;25.80;55.40;;;;;;4948370;29;19981;-75
2022/08/11 08:54:36;;;;;;;;;;;25.90;55.60;;;;;;4965038;29;20218;-76
2022/08/11 08:57:03;;;;;;;;;;;26.00;55.60;;;;;;4948286;29;19918;-75
2022/08/11 08:59:30;;;;;;;;;;;26.00;54.70;;;;;;4965017;29;19962;-76
2022/08/11 09:02:01;;;;;;;;;;;26.00;55.10;;;;;;4964768;29;20001;-74
2022/08/11 09:04:27;;;;;;;;;;;26.00;54.70;;;;;;4964065;28;19917;-75
2022/08/11 09:06:54;;;;;;;;;;;26.10;55.00;;;;;;4965326;29;19934;-75
2022/08/11 09:09:21;;;;;;;;;;;26.20;54.30;;;;;;4947594;29;19914;-76
2022/08/11 09:11:51;;;;;;;;;;;26.20;53.50;;;;;;4948261;29;20106;-75
2022/08/11 09:14:18;;;;;;;;;;;26.40;53.90;;;;;;4948277;29;19942;-75
2022/08/11 09:16:45;;;;;;;;;;;26.40;53.20;;;;;;4947952;29;19978;-76
2022/08/11 09:19:13;;;;;;;;;;;26.50;52.90;;;;;;4948680;29;20096;-77
2022/08/11 09:27:22;;;;;;;;;;;26.70;51.60;;;;;;4946734;29;19910;-78
2022/08/11 09:29:49;;;;;;;;;;;26.70;52.30;;;;;;4932750;29;19911;-79
2022/08/11 09:32:18;;;;;;;;;;;26.60;52.50;;;;;;4965305;29;19917;-77
2022/08/11 09:34:44;;;;;;;;;;;26.70;52.40;;;;;;4964843;29;19929;-79
2022/08/11 09:45:23;;;;;;;;;;;27.00;52.10;;;;;;4947915;29;19911;-78
2022/08/11 09:47:49;;;;;;;;;;;27.10;51.70;;;;;;4963400;29;20189;-80
2022/08/11 09:50:15;;;;;;;;;;;27.10;51.60;;;;;;4932306;29;19961;-81
2022/08/11 09:52:44;;;;;;;;;;;27.20;51.60;;;;;;4931294;29;19965;-78
2022/08/11 09:55:12;;;;;;;;;;;27.40;51.80;;;;;;4931420;29;19919;-79
2022/08/11 10:00:28;;;;;;;;;;;27.60;50.30;;;;;;4946954;29;19982;-80
2022/08/11 10:02:54;;;;;;;;;;;27.60;50.70;;;;;;4964373;29;19918;-80
2022/08/11 10:08:18;;;;;;;;;;;27.60;50.20;;;;;;4947180;29;20222;-80
2022/08/11 10:10:45;;;;;;;;;;;27.70;50.10;;;;;;4946798;29;19938;-80
2022/08/11 10:13:33;;;;;;;;;;;27.80;49.90;;;;;;4947635;29;19910;-80
2022/08/11 10:16:05;;;;;;;;;;;27.90;50.10;;;;;;4931106;29;19922;-79
2022/08/11 10:18:48;;;;;;;;;;;28.00;49.80;;;;;;4938441;28;20247;-79
2022/08/11 10:21:23;;;;;;;;;;;27.90;49.90;;;;;;4966342;28;19955;-79
2022/08/11 10:26:57;;;;;;;;;;;27.90;49.20;;;;;;4966249;28;19925;-80
2022/08/11 10:34:57;;;;;;;;;;;28.10;48.70;;;;;;4983624;28;19910;-79
2022/08/11 10:37:26;;;;;;;;;;;28.20;48.90;;;;;;4949811;28;19910;-80
2022/08/11 10:39:55;;;;;;;;;;;28.30;49.00;;;;;;4965927;28;19929;-76
2022/08/11 10:47:33;;;;;;;;;;;28.30;49.40;;;;;;4983039;28;19977;-77
2022/08/11 10:47:54;;;;;;;;;;;28.30;48.40;;;;;;4982698;28;19988;-76
2022/08/11 11:01:14;;;;;;;;;;;28.80;48.10;;;;;;4963518;29;19910;-77
2022/08/11 11:03:40;;;;;;;;;;;28.90;47.80;;;;;;4962486;29;19925;-77
2022/08/11 11:06:24;;;;;;;;;;;28.90;48.10;;;;;;4962356;29;19910;-75
2022/08/11 11:08:51;;;;;;;;;;;28.90;47.10;;;;;;4975538;28;19944;-78
2022/08/11 11:11:18;;;;;;;;;;;28.90;47.00;;;;;;4965667;28;19906;-78
2022/08/11 11:19:18;;;;;;;;;;;29.30;46.10;;;;;;4982357;28;19945;-75
2022/08/11 11:21:45;;;;;;;;;;;29.50;46.10;;;;;;4981786;28;19906;-76
2022/08/11 11:24:16;;;;;;;;;;;29.60;46.20;;;;;;4982120;28;20009;-75
2022/08/11 11:26:59;;;;;;;;;;;29.80;46.20;;;;;;4982176;28;20124;-75
2022/08/11 11:29:32;;;;;;;;;;;30.10;45.70;;;;;;4967991;28;19985;-76
2022/08/11 11:32:17;;;;;;;;;;;30.70;45.10;;;;;;4953180;28;19910;-75
2022/08/11 11:34:46;;;;;;;;;;;31.20;44.70;;;;;;4985630;28;19910;-76
2022/08/11 11:37:13;;;;;;;;;;;31.70;43.80;;;;;;4985956;28;19953;-75
2022/08/11 11:39:39;;;;;;;;;;;32.10;43.50;;;;;;4984406;28;19936;-75
2022/08/11 11:42:06;;;;;;;;;;;32.60;43.30;;;;;;4985028;28;19910;-77
2022/08/11 11:44:34;;;;;;;;;;;33.50;42.80;;;;;;4985294;28;19910;-75
2022/08/11 11:47:00;;;;;;;;;;;34.10;41.90;;;;;;4985844;28;20191;-75
2022/08/11 11:49:31;;;;;;;;;;;33.90;42.00;;;;;;4986225;28;19914;-76
2022/08/11 11:51:57;;;;;;;;;;;34.60;41.90;;;;;;4985799;28;19910;-76
2022/08/11 11:54:24;;;;;;;;;;;35.80;40.80;;;;;;4986007;28;20296;-76
2022/08/11 11:56:52;;;;;;;;;;;36.80;40.60;;;;;;4985512;28;19942;-76
2022/08/11 12:02:08;;;;;;;;;;;37.00;38.90;;;;;;4987671;28;19985;-78
2022/08/11 12:04:36;;;;;;;;;;;37.60;38.90;;;;;;4953894;28;20200;-78
2022/08/11 12:09:47;;;;;;;;;;;39.10;37.70;;;;;;4985955;28;19918;-78
2022/08/11 12:14:57;;;;;;;;;;;40.00;37.70;;;;;;4986333;28;20082;-77
2022/08/11 12:17:23;;;;;;;;;;;39.70;37.00;;;;;;4969176;28;19917;-77
2022/08/11 12:19:49;;;;;;;;;;;39.30;37.20;;;;;;4985403;28;20207;-78
2022/08/11 12:27:44;;;;;;;;;;;41.10;36.50;;;;;;4985184;28;19925;-78
2022/08/11 12:30:12;;;;;;;;;;;41.00;36.40;;;;;;4985902;28;19910;-77
2022/08/11 12:32:39;;;;;;;;;;;41.20;35.90;;;;;;4985635;28;19977;-77
2022/08/11 12:35:05;;;;;;;;;;;40.90;36.60;;;;;;4985304;28;19910;-78
2022/08/11 12:37:33;;;;;;;;;;;41.70;36.10;;;;;;4984506;28;20100;-78
2022/08/11 12:45:37;;;;;;;;;;;42.90;35.30;;;;;;4984719;28;20077;-77
2022/08/11 12:53:50;;;;;;;;;;;44.50;35.00;;;;;;4984756;28;19910;-77
2022/08/11 13:07:15;;;;;;;;;;;45.00;34.30;;;;;;4985102;28;19945;-77
2022/08/11 13:09:41;;;;;;;;;;;44.40;34.40;;;;;;4984179;28;19910;-78
2022/08/11 13:14:52;;;;;;;;;;;44.90;34.30;;;;;;4984168;28;19910;-77
2022/08/11 13:17:23;;;;;;;;;;;45.70;34.20;;;;;;4984526;28;19981;-78
2022/08/11 13:19:49;;;;;;;;;;;45.90;34.00;;;;;;4984202;28;20243;-77
2022/08/11 13:22:16;;;;;;;;;;;45.80;34.00;;;;;;4984343;28;20136;-79
2022/08/11 13:24:42;;;;;;;;;;;46.50;33.50;;;;;;4983850;28;19957;-76
2022/08/11 13:27:11;;;;;;;;;;;47.50;33.60;;;;;;4984370;28;19934;-75
2022/08/11 13:29:39;;;;;;;;;;;47.90;33.00;;;;;;4983708;28;19957;-76
2022/08/11 13:32:05;;;;;;;;;;;46.90;33.30;;;;;;4984216;28;19990;-76
2022/08/11 13:34:31;;;;;;;;;;;47.40;33.20;;;;;;4984275;28;20081;-75
2022/08/11 13:36:58;;;;;;;;;;;47.10;33.10;;;;;;4983752;28;19918;-77
2022/08/11 13:39:26;;;;;;;;;;;46.90;33.20;;;;;;4983992;28;19925;-77
2022/08/11 13:41:55;;;;;;;;;;;45.80;33.20;;;;;;4975402;28;20148;-77
2022/08/11 13:44:23;;;;;;;;;;;46.70;33.40;;;;;;4966602;28;20211;-76
2022/08/11 13:46:50;;;;;;;;;;;46.80;32.90;;;;;;4983152;28;20030;-76
2022/08/11 13:49:16;;;;;;;;;;;46.80;33.10;;;;;;4983880;28;19929;-76
2022/08/11 13:51:42;;;;;;;;;;;46.40;33.30;;;;;;4982667;28;19926;-77
2022/08/11 13:54:09;;;;;;;;;;;46.30;33.40;;;;;;4966453;28;19944;-77
2022/08/11 13:56:38;;;;;;;;;;;46.90;33.30;;;;;;4983559;28;19910;-76
2022/08/11 13:59:04;;;;;;;;;;;47.80;32.90;;;;;;4983400;28;19918;-76
2022/08/11 14:01:32;;;;;;;;;;;48.30;32.70;;;;;;4983599;28;19910;-76
2022/08/11 14:04:00;;;;;;;;;;;48.70;32.60;;;;;;4983446;28;20266;-74
2022/08/11 14:06:26;;;;;;;;;;;47.70;32.50;;;;;;4983734;28;20169;-75
2022/08/11 14:08:53;;;;;;;;;;;47.80;32.50;;;;;;4983225;28;19907;-76
2022/08/11 14:14:05;;;;;;;;;;;47.30;33.00;;;;;;4983739;28;19917;-76
2022/08/11 14:16:35;;;;;;;;;;;47.20;33.30;;;;;;4983350;28;20129;-78
2022/08/11 14:19:03;;;;;;;;;;;46.80;32.60;;;;;;4966028;28;19988;-76
2022/08/11 14:24:15;;;;;;;;;;;47.50;32.10;;;;;;4983428;28;19910;-78
2022/08/11 14:26:42;;;;;;;;;;;49.30;32.30;;;;;;4982584;28;20210;-77
2022/08/11 14:29:15;;;;;;;;;;;49.50;31.90;;;;;;4983099;28;19930;-76
2022/08/11 14:31:46;;;;;;;;;;;48.70;31.60;;;;;;4982846;28;19933;-77
2022/08/11 14:34:13;;;;;;;;;;;47.90;31.90;;;;;;4983308;28;19933;-76
2022/08/11 14:36:41;;;;;;;;;;;46.30;32.30;;;;;;4982429;28;19917;-76
2022/08/11 14:39:12;;;;;;;;;;;46.40;32.80;;;;;;4965599;28;20016;-76
2022/08/11 14:47:13;;;;;;;;;;;46.80;32.90;;;;;;4982936;28;19917;-75
2022/08/11 14:49:39;;;;;;;;;;;47.00;32.40;;;;;;4965935;28;20103;-75
2022/08/11 14:52:06;;;;;;;;;;;47.60;32.50;;;;;;4982819;28;20207;-74
2022/08/11 14:57:34;;;;;;;;;;;48.30;32.20;;;;;;4960386;28;19911;-75
2022/08/11 15:00:02;;;;;;;;;;;49.00;31.80;;;;;;4982304;28;19937;-76
2022/08/11 15:05:13;;;;;;;;;;;50.50;31.30;;;;;;4964429;29;19911;-77
2022/08/11 15:07:39;;;;;;;;;;;50.10;31.60;;;;;;4965667;28;19925;-76
2022/08/11 15:10:06;;;;;;;;;;;49.90;31.10;;;;;;4983337;28;19933;-76
2022/08/11 15:12:32;;;;;;;;;;;49.60;31.20;;;;;;4983599;28;20195;-77
2022/08/11 15:17:44;;;;;;;;;;;48.80;31.50;;;;;;4982424;28;19910;-78
2022/08/11 15:25:41;;;;;;;;;;;48.10;31.30;;;;;;4982754;28;19910;-78
2022/08/11 15:39:15;;;;;;;;;;;47.70;31.60;;;;;;4983677;28;20276;-76
2022/08/11 15:47:17;;;;;;;;;;;47.10;31.80;;;;;;4984058;28;19910;-76
2022/08/11 15:49:44;;;;;;;;;;;48.10;31.90;;;;;;4982820;28;20192;-76
2022/08/11 15:52:12;;;;;;;;;;;47.80;31.60;;;;;;4983557;28;19917;-75
2022/08/11 15:54:40;;;;;;;;;;;48.00;31.80;;;;;;4983296;28;19906;-75
2022/08/11 15:57:07;;;;;;;;;;;47.60;31.80;;;;;;4982778;28;19910;-73
2022/08/11 16:04:50;;;;;;;;;;;47.30;31.90;;;;;;4982776;28;19933;-77
2022/08/11 16:07:18;;;;;;;;;;;47.20;32.00;;;;;;4965897;28;19914;-76
2022/08/11 16:09:45;;;;;;;;;;;47.00;31.90;;;;;;4982535;28;19910;-75
2022/08/11 16:12:12;;;;;;;;;;;46.90;32.20;;;;;;4983214;28;19917;-75
2022/08/11 16:17:26;;;;;;;;;;;46.50;32.30;;;;;;4986704;28;20107;-76
2022/08/11 16:19:53;;;;;;;;;;;46.20;32.10;;;;;;4986139;28;19918;-75
2022/08/11 16:22:24;;;;;;;;;;;46.20;32.20;;;;;;4986587;28;19973;-76
2022/08/11 16:24:50;;;;;;;;;;;45.90;32.50;;;;;;4986422;28;19910;-75
2022/08/11 16:27:18;;;;;;;;;;;45.50;32.60;;;;;;4986460;28;19952;-74
2022/08/11 16:29:46;;;;;;;;;;;44.80;32.70;;;;;;4986869;28;20008;-75
2022/08/11 16:32:20;;;;;;;;;;;44.30;33.10;;;;;;4986362;28;19910;-75
2022/08/11 16:40:19;;;;;;;;;;;43.90;33.40;;;;;;4986339;28;19993;-77
2022/08/11 16:48:15;;;;;;;;;;;45.10;33.00;;;;;;4986543;28;20141;-77
2022/08/11 16:50:40;;;;;;;;;;;45.50;32.40;;;;;;4986300;28;19910;-75
2022/08/11 16:53:06;;;;;;;;;;;44.50;32.50;;;;;;4968357;28;19924;-76
2022/08/11 16:55:33;;;;;;;;;;;43.00;33.20;;;;;;4986186;28;19974;-77
2022/08/11 17:00:45;;;;;;;;;;;41.80;33.70;;;;;;4986110;28;19914;-77
2022/08/11 17:14:22;;;;;;;;;;;35.70;37.10;;;;;;4986619;28;19918;-76
2022/08/11 17:16:49;;;;;;;;;;;35.30;37.40;;;;;;4985460;28;20204;-76
2022/08/11 17:19:20;;;;;;;;;;;34.80;37.90;;;;;;4985733;28;19918;-76
2022/08/11 17:24:34;;;;;;;;;;;34.30;39.10;;;;;;4985606;28;19910;-75
2022/08/11 17:27:00;;;;;;;;;;;34.10;38.60;;;;;;4967169;28;19936;-75
2022/08/11 17:29:31;;;;;;;;;;;34.00;38.90;;;;;;4985686;28;19911;-76
2022/08/11 17:37:31;;;;;;;;;;;33.10;39.40;;;;;;4984186;28;19917;-74
2022/08/11 17:39:58;;;;;;;;;;;32.80;39.70;;;;;;4984785;28;20155;-75
2022/08/11 17:50:39;;;;;;;;;;;31.90;40.70;;;;;;4985205;28;19910;-77
2022/08/11 18:01:22;;;;;;;;;;;31.70;40.40;;;;;;4983872;28;20043;-74
2022/08/11 18:03:48;;;;;;;;;;;31.40;40.60;;;;;;4984515;28;20192;-75
2022/08/11 18:06:17;;;;;;;;;;;31.20;40.80;;;;;;4983953;28;20236;-76
